Time;durP1;ratioP1;P1;durP2;ratioP2;P2;SDS_P1;SDS_P2;PMS_P1;PMS_P2;Temp;Humidity;BMP_temperature;BMP_pressure;BME280_temperature;BME280_humidity;BME280_pressure;Samples;Min_cycle;Max_cycle;Signal;HPM_P1;HPM_P2
2023/12/13 00:01:38;;;;;;;0.30;0.30;;;7.60;99.90;;;7.03;100.00;95851.91;4962127;28;20069;-42
2023/12/13 00:04:04;;;;;;;0.60;0.40;;;7.60;99.90;;;7.00;100.00;95859.03;4973413;28;20965;-39
2023/12/13 00:06:30;;;;;;;0.10;0.10;;;7.60;99.90;;;6.89;100.00;95859.53;4970032;28;20134;-40
2023/12/13 00:08:56;;;;;;;0.30;0.17;;;7.50;99.90;;;6.74;100.00;95853.25;4974929;28;20030;-39
2023/12/13 00:11:21;;;;;;;0.20;0.20;;;7.40;99.90;;;6.60;100.00;95850.44;4977127;28;20540;-41
2023/12/13 00:13:47;;;;;;;1.00;0.40;;;7.30;99.90;;;6.54;100.00;95862.03;4975734;28;20214;-41
2023/12/13 00:16:13;;;;;;;0.47;0.20;;;7.20;99.90;;;6.54;100.00;95863.81;4974089;28;20038;-42
2023/12/13 00:18:38;;;;;;;1.17;0.32;;;7.20;99.90;;;6.53;100.00;95844.63;4977684;28;20042;-38
2023/12/13 00:21:04;;;;;;;0.63;0.40;;;7.20;99.90;;;6.54;100.00;95833.22;4968547;28;20088;-39
2023/12/13 00:23:30;;;;;;;0.57;0.40;;;7.20;99.90;;;6.40;100.00;95804.22;4977427;28;20456;-40
2023/12/13 00:25:56;;;;;;;0.20;0.20;;;7.20;99.90;;;6.44;100.00;95824.09;4977695;28;20042;-40
2023/12/13 00:28:21;;;;;;;2.25;0.40;;;7.10;99.90;;;6.31;100.00;95822.03;4984825;28;20104;-42
2023/12/13 00:30:47;;;;;;;0.40;0.30;;;7.00;99.90;;;6.20;100.00;95818.22;4972450;28;20085;-40
2023/12/13 00:33:13;;;;;;;0.82;0.47;;;6.90;99.90;;;6.10;100.00;95825.59;4974114;28;20045;-41
2023/12/13 00:35:38;;;;;;;1.10;0.50;;;6.80;99.90;;;6.04;100.00;95820.66;4976096;28;20399;-41
2023/12/13 00:38:04;;;;;;;0.60;0.30;;;6.70;99.90;;;5.98;100.00;95818.31;4980160;28;20713;-39
2023/12/13 00:40:30;;;;;;;1.27;0.40;;;6.60;99.90;;;5.87;100.00;95810.91;4979225;28;20342;-40
2023/12/13 00:42:56;;;;;;;0.95;0.40;;;6.60;99.90;;;5.83;100.00;95814.56;4977581;28;20025;-39
2023/12/13 00:45:22;;;;;;;0.55;0.30;;;6.50;99.90;;;5.76;100.00;95820.97;4983865;28;20092;-40
2023/12/13 00:47:49;;;;;;;1.23;0.40;;;6.50;99.90;;;5.67;100.00;95815.22;4978641;28;20038;-39
2023/12/13 00:50:15;;;;;;;1.35;0.40;;;6.30;99.90;;;5.61;100.00;95815.47;4981261;28;20766;-39
2023/12/13 00:52:41;;;;;;;2.25;0.35;;;6.30;99.90;;;5.54;100.00;95804.44;4968041;28;20145;-39
2023/12/13 00:55:08;;;;;;;0.30;0.30;;;6.30;99.90;;;5.45;100.00;95804.81;4980221;28;20106;-39
2023/12/13 00:57:34;;;;;;;0.40;0.30;;;6.20;99.90;;;5.44;100.00;95807.53;4972782;28;20041;-39
2023/12/13 00:59:59;;;;;;;0.90;0.40;;;6.20;99.90;;;5.38;100.00;95802.53;4973815;28;20498;-40
2023/12/13 01:02:27;;;;;;;0.60;0.32;;;6.10;99.90;;;5.35;100.00;95812.22;4972068;28;20100;-39
2023/12/13 01:04:53;;;;;;;0.50;0.40;;;6.10;99.90;;;5.35;100.00;95821.81;4968651;28;20042;-40
2023/12/13 01:07:18;;;;;;;0.20;0.20;;;6.10;99.90;;;5.33;100.00;95821.88;4972639;28;20381;-40
2023/12/13 01:09:44;;;;;;;1.00;0.40;;;6.00;99.90;;;5.30;100.00;95823.78;4963334;28;20108;-40
2023/12/13 01:12:13;;;;;;;0.85;0.47;;;6.00;99.90;;;5.32;100.00;95835.00;4968526;28;20096;-41
2023/12/13 01:14:39;;;;;;;0.30;0.28;;;6.00;99.90;;;5.31;100.00;95818.47;4972194;28;20045;-40
2023/12/13 01:17:04;;;;;;;0.90;0.38;;;6.00;99.90;;;5.16;100.00;95788.59;4967116;28;20170;-39
2023/12/13 01:19:30;;;;;;;1.58;0.30;;;6.00;99.90;;;5.28;100.00;95810.75;4968715;28;20033;-39
2023/12/13 01:21:56;;;;;;;1.10;0.40;;;6.00;99.90;;;5.35;100.00;95811.38;4965661;28;20037;-40
2023/12/13 01:24:21;;;;;;;1.20;0.47;;;6.00;99.90;;;5.34;100.00;95814.88;4970916;28;20046;-40
2023/12/13 01:26:47;;;;;;;2.83;0.50;;;6.00;99.90;;;5.31;100.00;95815.00;4973263;28;20316;-41
2023/12/13 01:29:13;;;;;;;0.40;0.30;;;6.00;99.90;;;5.32;100.00;95814.94;4968729;28;20487;-40
2023/12/13 01:31:39;;;;;;;2.00;0.40;;;6.10;99.90;;;5.37;100.00;95812.16;4973728;28;20791;-38
2023/12/13 01:34:06;;;;;;;1.23;0.50;;;6.10;99.90;;;5.38;100.00;95807.75;4978255;28;20309;-37
2023/12/13 01:36:33;;;;;;;0.73;0.30;;;6.10;99.90;;;5.47;100.00;95802.13;4981118;28;20054;-39
2023/12/13 01:38:59;;;;;;;0.93;0.43;;;6.10;99.90;;;5.54;100.00;95798.34;4991948;28;20151;-39
2023/12/13 01:41:25;;;;;;;3.15;0.43;;;6.20;99.90;;;5.62;100.00;95796.28;4979549;28;20038;-39
2023/12/13 01:43:50;;;;;;;0.52;0.38;;;6.30;99.90;;;5.72;100.00;95796.72;4982159;28;20506;-40
2023/12/13 01:46:16;;;;;;;0.40;0.30;;;6.40;99.90;;;5.78;100.00;95792.97;4974368;28;20459;-39
2023/12/13 01:48:43;;;;;;;3.42;0.52;;;6.40;99.90;;;5.82;100.00;95798.00;4978387;28;20053;-40
2023/12/13 01:51:09;;;;;;;4.25;0.40;;;6.50;99.90;;;5.88;100.00;95802.97;4980479;28;20038;-39
2023/12/13 01:53:37;;;;;;;3.97;0.50;;;6.50;99.90;;;5.93;100.00;95806.22;4997612;28;20080;-39
2023/12/13 01:56:05;;;;;;;1.45;0.40;;;6.60;99.90;;;5.98;100.00;95792.16;4984568;28;20045;-39
2023/12/13 01:58:32;;;;;;;2.97;0.52;;;6.60;99.90;;;5.98;100.00;95795.59;4979586;28;20091;-39
2023/12/13 02:00:58;;;;;;;0.77;0.32;;;6.60;99.90;;;5.91;100.00;95781.06;4973203;28;20026;-41
2023/12/13 02:03:25;;;;;;;1.15;0.40;;;6.60;99.90;;;5.86;100.00;95778.63;4981659;28;20026;-40
2023/12/13 02:05:51;;;;;;;0.52;0.32;;;6.60;99.90;;;5.80;100.00;95786.78;4986884;28;20045;-41
2023/12/13 02:08:17;;;;;;;2.78;0.55;;;6.50;99.90;;;5.73;100.00;95782.72;4975146;28;20030;-40
2023/12/13 02:10:44;;;;;;;1.67;0.40;;;6.40;99.90;;;5.72;100.00;95778.41;4978430;28;20407;-39
2023/12/13 02:13:12;;;;;;;1.50;0.40;;;6.40;99.90;;;5.63;100.00;95779.63;4974114;28;20052;-39
2023/12/13 02:15:37;;;;;;;1.30;0.50;;;6.30;99.90;;;5.54;100.00;95785.28;4967741;28;20040;-39
2023/12/13 02:18:04;;;;;;;1.40;0.40;;;6.30;99.90;;;5.48;100.00;95773.31;4973899;28;20334;-41
2023/12/13 02:20:29;;;;;;;2.90;0.40;;;6.20;99.90;;;5.41;100.00;95769.25;4976390;28;20030;-39
2023/12/13 02:22:56;;;;;;;1.65;0.50;;;6.10;99.90;;;5.33;100.00;95763.53;4975671;28;20040;-39
2023/12/13 02:25:44;;;;;;;3.38;0.57;;;6.10;99.90;;;5.37;100.00;95767.69;4975014;28;20517;-40
2023/12/13 02:28:10;;;;;;;1.95;0.57;;;6.00;99.90;;;5.31;100.00;95767.94;4973725;28;20084;-39
2023/12/13 02:30:36;;;;;;;1.88;1.20;;;6.00;99.90;;;5.33;100.00;95767.00;4973001;28;20031;-39
2023/12/13 02:33:02;;;;;;;0.77;0.40;;;6.00;99.90;;;5.31;100.00;95762.72;4977880;28;20083;-39
2023/12/13 02:35:28;;;;;;;1.48;0.50;;;6.00;99.90;;;5.28;100.00;95761.09;4981288;28;20105;-39
2023/12/13 02:37:54;;;;;;;0.63;0.30;;;6.00;99.90;;;5.19;100.00;95756.25;4977319;28;20022;-40
2023/12/13 02:40:22;;;;;;;2.15;0.25;;;6.00;99.90;;;5.31;100.00;95765.34;4973319;28;20041;-39
2023/12/13 02:42:48;;;;;;;1.67;0.38;;;6.00;99.90;;;5.29;100.00;95754.09;4977002;28;20167;-38
2023/12/13 02:45:14;;;;;;;1.13;0.52;;;6.00;99.90;;;5.29;100.00;95761.94;4967741;28;20391;-41
2023/12/13 02:47:43;;;;;;;1.30;0.40;;;6.00;99.90;;;5.37;100.00;95769.47;4970706;28;20033;-39
2023/12/13 02:50:13;;;;;;;4.25;0.60;;;6.00;99.90;;;5.38;100.00;95769.38;4973546;28;20038;-39
2023/12/13 02:52:40;;;;;;;1.27;0.40;;;6.10;99.90;;;5.42;100.00;95773.59;4970972;28;20129;-39
2023/12/13 02:55:09;;;;;;;0.52;0.13;;;6.10;99.90;;;5.41;100.00;95763.19;4975374;28;20053;-39
2023/12/13 02:57:35;;;;;;;1.63;0.50;;;6.10;99.90;;;5.41;100.00;95765.81;4982520;28;20073;-39
2023/12/13 03:00:01;;;;;;;1.80;0.40;;;6.10;99.90;;;5.40;100.00;95757.13;4976405;28;20125;-40
2023/12/13 03:02:26;;;;;;;5.95;0.70;;;6.10;99.90;;;5.42;100.00;95755.28;4977027;28;20026;-40
2023/12/13 03:04:52;;;;;;;2.45;0.60;;;6.10;99.90;;;5.46;100.00;95745.56;4963302;28;20095;-41
2023/12/13 03:07:19;;;;;;;3.53;0.40;;;6.20;99.90;;;5.53;100.00;95760.91;4967330;28;20042;-39
2023/12/13 03:09:45;;;;;;;3.05;0.50;;;6.20;99.90;;;5.57;100.00;95750.31;4985807;28;20317;-40
2023/12/13 03:12:10;;;;;;;1.05;0.50;;;6.30;99.90;;;5.67;100.00;95762.94;4968606;28;20038;-41
2023/12/13 03:14:36;;;;;;;1.50;0.38;;;6.40;99.90;;;5.72;100.00;95754.84;4974481;28;20117;-38
2023/12/13 03:17:02;;;;;;;0.40;0.30;;;6.40;99.90;;;5.76;100.00;95768.66;4970765;28;20172;-41
2023/12/13 03:19:28;;;;;;;2.13;0.40;;;6.40;99.90;;;5.80;100.00;95767.63;4974717;28;20491;-38
2023/12/13 03:21:53;;;;;;;3.08;0.43;;;6.50;99.90;;;5.78;100.00;95798.19;4968223;28;20042;-38
2023/12/13 03:24:19;;;;;;;1.38;0.38;;;6.50;99.90;;;5.77;100.00;95791.28;4972181;28;20039;-37
2023/12/13 03:26:45;;;;;;;2.20;0.65;;;6.50;99.90;;;5.79;100.00;95792.06;4969832;28;20042;-38
2023/12/13 03:29:10;;;;;;;0.57;0.30;;;6.50;99.90;;;5.80;100.00;95776.31;4968734;28;20112;-38
2023/12/13 03:31:36;;;;;;;0.47;0.40;;;6.50;99.90;;;5.76;100.00;95776.50;4982256;28;20022;-40
2023/12/13 03:34:02;;;;;;;1.17;0.40;;;6.50;99.90;;;5.74;100.00;95772.19;4973819;28;20704;-39
2023/12/13 03:36:27;;;;;;;1.27;0.60;;;6.40;99.90;;;5.75;100.00;95767.81;4981499;28;20092;-39
2023/12/13 03:38:53;;;;;;;1.70;0.40;;;6.40;99.90;;;5.77;100.00;95763.34;4975824;28;20076;-38
2023/12/13 03:41:19;;;;;;;1.52;0.40;;;6.50;99.90;;;5.79;100.00;95756.28;4978956;28;20116;-38
2023/12/13 03:43:45;;;;;;;3.22;0.52;;;6.50;99.90;;;5.81;100.00;95758.84;4981236;28;20097;-39
2023/12/13 03:46:11;;;;;;;0.40;0.30;;;6.50;99.90;;;5.80;100.00;95751.94;4972193;28;20042;-39
2023/12/13 03:48:37;;;;;;;1.85;0.40;;;6.40;99.90;;;5.75;100.00;95744.28;4985635;28;20058;-38
2023/12/13 03:51:04;;;;;;;0.30;0.30;;;6.40;99.90;;;5.66;100.00;95750.75;4975323;28;20322;-42
2023/12/13 03:53:31;;;;;;;0.90;0.47;;;6.30;99.90;;;5.57;100.00;95756.38;4979437;28;20022;-39
2023/12/13 03:55:57;;;;;;;1.27;0.40;;;6.30;99.90;;;5.50;100.00;95749.72;4975439;28;23451;-39
2023/12/13 03:58:22;;;;;;;0.73;0.20;;;6.20;99.90;;;5.41;100.00;95740.50;4975437;28;20023;-38
2023/12/13 04:00:48;;;;;;;0.63;0.35;;;6.10;99.90;;;5.33;100.00;95725.16;4976935;28;20045;-39
2023/12/13 04:03:14;;;;;;;0.93;0.30;;;6.10;99.90;;;5.17;100.00;95700.59;4979020;28;20042;-38
2023/12/13 04:05:40;;;;;;;0.55;0.50;;;6.00;99.90;;;5.21;100.00;95711.78;4986344;28;20081;-38
2023/12/13 04:08:06;;;;;;;0.30;0.20;;;5.90;99.90;;;5.17;100.00;95705.84;4974262;28;20039;-40
2023/12/13 04:10:32;;;;;;;0.52;0.40;;;5.90;99.90;;;5.20;100.00;95715.28;4975185;28;20026;-40
2023/12/13 04:12:58;;;;;;;3.20;0.50;;;5.90;99.90;;;5.14;100.00;95719.03;4977779;28;20046;-39
2023/12/13 04:15:24;;;;;;;3.25;0.50;;;5.90;99.90;;;5.20;100.00;95730.97;4970564;28;20041;-39
2023/12/13 04:17:50;;;;;;;2.72;0.45;;;5.90;99.90;;;5.18;100.00;95724.97;4975064;28;20332;-38
2023/12/13 04:20:16;;;;;;;0.90;0.60;;;5.90;99.90;;;5.18;100.00;95724.97;4974818;28;20036;-38
2023/12/13 04:22:42;;;;;;;1.50;0.40;;;5.90;99.90;;;5.19;100.00;95717.06;4976691;28;20528;-40
2023/12/13 04:25:08;;;;;;;1.05;0.50;;;5.90;99.90;;;5.21;100.00;95711.78;4969535;28;20530;-38
2023/12/13 04:27:34;;;;;;;1.33;0.40;;;5.90;99.90;;;5.25;100.00;95713.34;4973201;28;20065;-38
2023/12/13 04:29:59;;;;;;;1.70;0.40;;;6.00;99.90;;;5.29;100.00;95714.88;4974934;28;20514;-40
2023/12/13 04:32:26;;;;;;;1.10;0.40;;;6.00;99.90;;;5.25;100.00;95698.50;4974570;28;20523;-40
2023/12/13 04:34:51;;;;;;;0.95;0.50;;;6.00;99.90;;;5.33;100.00;95706.03;4966170;28;20030;-41
2023/12/13 04:37:17;;;;;;;2.38;0.82;;;6.00;99.90;;;5.31;100.00;95700.84;4971783;28;20045;-40
2023/12/13 04:39:43;;;;;;;2.25;0.60;;;6.00;99.90;;;5.30;100.00;95706.16;4981284;28;20100;-41
2023/12/13 04:42:08;;;;;;;0.80;0.50;;;6.00;99.90;;;5.31;100.00;95708.69;4973564;28;20093;-40
2023/12/13 04:44:34;;;;;;;1.13;0.50;;;6.00;99.90;;;5.33;100.00;95701.63;4979118;28;20497;-40
2023/12/13 04:47:00;;;;;;;0.77;0.40;;;6.00;99.90;;;5.32;100.00;95701.69;4973600;28;20585;-41
2023/12/13 04:49:26;;;;;;;2.63;0.52;;;6.00;99.90;;;5.20;100.00;95684.78;4977228;28;20406;-40
2023/12/13 04:51:52;;;;;;;2.13;0.55;;;6.00;99.90;;;5.30;100.00;95693.09;4974615;28;20515;-37
2023/12/13 04:54:19;;;;;;;1.10;0.65;;;6.00;99.90;;;5.29;100.00;95683.53;4977018;28;20046;-39
2023/12/13 04:56:44;;;;;;;1.75;0.40;;;6.00;99.90;;;5.26;100.00;95675.84;4975468;28;20108;-38
2023/12/13 04:59:10;;;;;;;1.33;0.60;;;6.00;99.90;;;5.31;100.00;95677.34;4990350;28;20038;-39
2023/12/13 05:01:36;;;;;;;1.85;0.40;;;6.00;99.90;;;5.25;100.00;95661.91;4976458;28;20038;-39
2023/12/13 05:04:02;;;;;;;1.15;0.50;;;6.10;99.90;;;5.31;100.00;95664.28;4979171;28;20502;-39
2023/12/13 05:06:27;;;;;;;1.45;0.38;;;6.00;99.90;;;5.28;100.00;95660.94;4979426;28;20037;-39
2023/12/13 05:08:53;;;;;;;3.75;0.50;;;6.00;99.90;;;5.31;100.00;95663.41;4966825;28;20026;-39
2023/12/13 05:11:19;;;;;;;1.20;0.50;;;6.10;99.90;;;5.32;100.00;95658.09;4976692;28;20145;-40
2023/12/13 05:13:45;;;;;;;0.77;0.40;;;6.00;99.90;;;5.38;100.00;95675.28;4985649;28;20029;-41
2023/12/13 05:16:11;;;;;;;0.65;0.30;;;6.10;99.90;;;5.39;100.00;95674.38;4979610;28;20050;-41
2023/12/13 05:18:37;;;;;;;0.65;0.30;;;6.10;99.90;;;5.38;100.00;95670.06;4982014;28;20028;-44
2023/12/13 05:21:03;;;;;;;0.40;0.40;;;6.10;99.90;;;5.45;100.00;95668.88;4972139;28;20109;-42
2023/12/13 05:23:28;;;;;;;1.40;0.38;;;6.10;99.90;;;5.54;100.00;95665.88;4979513;28;20243;-42
2023/12/13 05:25:55;;;;;;;0.55;0.40;;;6.10;99.90;;;5.50;100.00;95671.28;4978445;28;20221;-39
2023/12/13 05:28:20;;;;;;;0.38;0.38;;;6.20;99.90;;;5.52;100.00;95659.84;4971153;28;20475;-41
2023/12/13 05:30:46;;;;;;;0.20;0.20;;;6.20;99.90;;;5.51;100.00;95658.16;4974083;28;20104;-39
2023/12/13 05:33:12;;;;;;;0.20;0.20;;;6.20;99.90;;;5.28;100.00;95619.13;4978879;28;20034;-40
2023/12/13 05:35:38;;;;;;;1.90;0.40;;;6.20;99.90;;;5.51;100.00;95657.31;4979529;28;20441;-39
2023/12/13 05:38:04;;;;;;;0.65;0.22;;;6.20;99.90;;;5.53;100.00;95661.53;4982042;28;20026;-39
2023/12/13 05:40:33;;;;;;;1.67;0.40;;;6.20;99.90;;;5.48;100.00;95647.81;4983930;28;20376;-40
2023/12/13 05:43:00;;;;;;;0.40;0.30;;;6.20;99.90;;;5.50;100.00;95656.44;4978551;28;20031;-39
2023/12/13 05:45:27;;;;;;;2.10;0.40;;;6.20;99.90;;;5.47;100.00;95656.59;4976474;28;20041;-38
2023/12/13 05:47:53;;;;;;;1.02;0.35;;;6.20;99.90;;;5.45;100.00;95647.09;4977690;28;20073;-40
2023/12/13 05:50:19;;;;;;;1.38;0.40;;;6.20;99.90;;;5.44;100.00;95646.28;4976481;28;20447;-39
2023/12/13 05:52:45;;;;;;;0.80;0.40;;;6.10;99.90;;;5.41;100.00;95640.31;4977830;28;20551;-41
2023/12/13 05:55:11;;;;;;;1.13;0.38;;;6.10;99.90;;;5.40;100.00;95633.38;4981494;28;20025;-40
2023/12/13 05:57:37;;;;;;;0.30;0.30;;;6.20;99.90;;;5.39;100.00;95622.09;4982354;28;20027;-42
2023/12/13 06:00:07;;;;;;;0.20;0.20;;;6.20;99.90;;;5.49;100.00;95638.19;4976677;28;20240;-41
2023/12/13 06:02:35;;;;;;;0.75;0.50;;;6.20;99.90;;;5.56;100.00;95629.16;4974274;28;20049;-41
2023/12/13 06:05:02;;;;;;;0.98;0.47;;;6.20;99.90;;;5.55;100.00;95620.47;4962054;28;20053;-40
2023/12/13 06:07:32;;;;;;;1.75;0.30;;;6.30;99.90;;;5.54;100.00;95624.03;4964402;28;20183;-40
2023/12/13 06:09:58;;;;;;;1.05;0.47;;;6.30;99.90;;;5.73;100.00;95644.09;4964912;28;20037;-40
2023/12/13 06:12:23;;;;;;;2.13;0.40;;;6.40;99.90;;;5.78;100.00;95644.75;4977524;28;20399;-38
2023/12/13 06:14:49;;;;;;;1.05;0.50;;;6.40;99.90;;;5.84;100.00;95647.06;4982328;28;20137;-40
2023/12/13 06:17:15;;;;;;;1.80;0.50;;;6.50;99.90;;;5.85;100.00;95629.59;4982018;28;20068;-39
2023/12/13 06:19:41;;;;;;;1.30;0.57;;;6.60;99.90;;;5.97;100.00;95642.13;4980801;28;20046;-40
2023/12/13 06:22:10;;;;;;;1.25;0.75;;;6.60;99.90;;;5.99;100.00;95637.69;4965959;28;20470;-38
2023/12/13 06:24:36;;;;;;;2.40;0.68;;;6.60;99.90;;;6.10;100.00;95637.16;4979611;28;20438;-37
2023/12/13 06:27:03;;;;;;;2.38;0.63;;;6.70;99.90;;;6.17;100.00;95645.59;4973583;28;20042;-39
2023/12/13 06:29:29;;;;;;;1.23;0.52;;;6.80;99.90;;;6.22;100.00;95647.06;4980533;28;20192;-40
2023/12/13 06:31:54;;;;;;;2.10;0.50;;;6.80;99.90;;;6.27;100.00;95642.47;4977241;28;20034;-40
2023/12/13 06:34:20;;;;;;;1.88;0.52;;;6.90;99.90;;;6.29;100.00;95634.53;4984285;28;20065;-39
2023/12/13 06:36:46;;;;;;;1.75;0.55;;;6.90;99.90;;;6.24;100.00;95626.06;4980755;28;20034;-40
2023/12/13 06:39:12;;;;;;;2.70;0.50;;;7.00;99.90;;;6.31;100.00;95641.38;4983343;28;20030;-41
2023/12/13 06:41:39;;;;;;;3.30;0.68;;;7.00;99.90;;;6.30;100.00;95628.38;4981898;28;20463;-41
2023/12/13 06:44:06;;;;;;;4.45;0.60;;;7.00;99.90;;;6.39;100.00;95632.31;4984910;28;20038;-42
2023/12/13 06:46:31;;;;;;;3.03;0.50;;;7.00;99.90;;;6.40;100.00;95634.84;4983077;28;20030;-40
2023/12/13 06:48:57;;;;;;;1.20;0.55;;;7.00;99.90;;;6.42;100.00;95629.56;4981157;28;20030;-38
2023/12/13 06:51:23;;;;;;;1.40;0.50;;;7.00;99.90;;;6.43;100.00;95631.25;4976217;28;20066;-39
2023/12/13 06:53:49;;;;;;;1.58;0.68;;;7.00;99.90;;;6.41;100.00;95620.00;4981174;28;20513;-41
2023/12/13 06:56:15;;;;;;;1.40;0.65;;;7.10;99.90;;;6.41;100.00;95622.63;4983235;28;20034;-38
2023/12/13 06:58:41;;;;;;;2.67;0.63;;;7.10;99.90;;;6.34;100.00;95610.75;4982567;28;20030;-40
2023/12/13 07:01:06;;;;;;;0.73;0.50;;;7.10;99.90;;;6.36;100.00;95622.84;4981072;28;20426;-39
2023/12/13 07:03:32;;;;;;;1.77;0.63;;;7.00;99.90;;;6.34;100.00;95622.06;4982544;28;20216;-39
2023/12/13 07:05:58;;;;;;;1.20;0.65;;;7.00;99.90;;;6.29;100.00;95617.06;4983505;28;20419;-42
2023/12/13 07:08:24;;;;;;;0.73;0.50;;;7.00;99.90;;;6.31;100.00;95622.22;4983951;28;20113;-38
2023/12/13 07:10:50;;;;;;;1.25;0.45;;;7.00;99.90;;;6.30;100.00;95623.16;4984566;28;20445;-39
2023/12/13 07:13:15;;;;;;;1.02;0.40;;;7.00;99.90;;;6.35;100.00;95625.53;4986954;28;20435;-39
2023/12/13 07:15:42;;;;;;;1.75;0.50;;;7.00;99.90;;;6.36;100.00;95622.00;4978924;28;20039;-41
2023/12/13 07:18:08;;;;;;;0.32;0.32;;;7.00;99.90;;;6.36;100.00;95619.38;4979515;28;20029;-39
2023/12/13 07:20:34;;;;;;;1.00;0.40;;;7.00;99.90;;;6.38;100.00;95614.91;4986933;28;20026;-40
2023/12/13 07:22:59;;;;;;;1.08;0.45;;;7.00;99.90;;;6.33;100.00;95614.28;4988084;28;20513;-39
2023/12/13 07:25:25;;;;;;;0.77;0.40;;;7.00;99.90;;;6.34;100.00;95616.00;4984468;28;20523;-38
2023/12/13 07:27:51;;;;;;;1.40;0.40;;;7.00;99.90;;;6.17;100.00;95593.25;4988150;28;20033;-39
2023/12/13 07:30:17;;;;;;;2.95;0.40;;;7.00;99.90;;;6.36;100.00;95609.75;4990329;28;20064;-39
2023/12/13 07:32:44;;;;;;;1.00;0.43;;;7.00;99.90;;;6.37;100.00;95623.69;4989888;28;20037;-39
2023/12/13 07:35:10;;;;;;;2.45;0.70;;;7.00;99.90;;;6.34;100.00;95606.38;4985777;28;20541;-40
2023/12/13 07:37:36;;;;;;;2.50;0.57;;;7.00;99.90;;;6.34;100.00;95595.91;4989670;28;20034;-39
2023/12/13 07:40:06;;;;;;;1.67;0.60;;;7.10;99.90;;;6.40;100.00;95597.34;4985841;28;20050;-40
2023/12/13 07:42:33;;;;;;;1.58;0.40;;;7.10;99.90;;;6.51;100.00;95605.53;4987178;28;20112;-39
2023/12/13 07:44:58;;;;;;;1.00;0.52;;;7.20;99.90;;;6.55;100.00;95608.84;4988628;28;20042;-41
2023/12/13 07:47:24;;;;;;;1.75;0.65;;;7.20;99.90;;;6.52;100.00;95604.63;4985863;28;20392;-39
2023/12/13 07:49:50;;;;;;;2.20;0.50;;;7.20;99.90;;;6.61;100.00;95608.56;4987214;28;20516;-41
2023/12/13 07:52:16;;;;;;;1.63;0.60;;;7.30;99.90;;;6.62;100.00;95615.47;4987730;28;20030;-40
2023/12/13 07:54:44;;;;;;;1.88;0.50;;;7.30;99.90;;;6.65;100.00;95612.72;4988894;28;20294;-40
2023/12/13 07:57:10;;;;;;;1.80;0.50;;;7.30;99.90;;;6.63;100.00;95604.91;4985536;28;20029;-40
2023/12/13 07:59:36;;;;;;;2.28;0.60;;;7.30;99.90;;;6.66;100.00;95610.00;4988898;28;20081;-40
2023/12/13 08:02:02;;;;;;;0.77;0.52;;;7.30;99.90;;;6.59;100.00;95589.44;4983036;28;20034;-40
2023/12/13 08:04:27;;;;;;;0.60;0.47;;;7.30;99.90;;;6.73;100.00;95602.69;5003929;28;20038;-38
2023/12/13 08:06:53;;;;;;;0.60;0.50;;;7.40;99.90;;;6.70;100.00;95608.09;4986906;28;20137;-39
2023/12/13 08:09:19;;;;;;;1.52;0.57;;;7.40;99.90;;;6.72;100.00;95610.63;4985724;28;20050;-40
2023/12/13 08:11:46;;;;;;;1.70;0.50;;;7.40;99.90;;;6.82;100.00;95614.47;4979759;28;20605;-40
2023/12/13 08:14:16;;;;;;;2.60;0.70;;;7.50;99.90;;;6.84;100.00;95615.25;4984137;28;20037;-39
2023/12/13 08:16:42;;;;;;;1.25;0.43;;;7.50;99.90;;;6.81;100.00;95604.94;4987016;28;20145;-40
2023/12/13 08:19:08;;;;;;;0.68;0.40;;;7.60;99.90;;;6.73;100.00;95591.34;4986241;28;20033;-40
2023/12/13 08:21:40;;;;;;;1.77;0.80;;;7.50;99.90;;;6.95;100.00;95614.72;4986641;28;20379;-39
2023/12/13 08:24:08;;;;;;;0.75;0.50;;;7.60;99.90;;;6.94;100.00;95615.63;4983971;28;20042;-39
2023/12/13 08:26:35;;;;;;;1.95;0.60;;;7.60;99.90;;;6.93;100.00;95613.91;4982403;28;20037;-41
2023/12/13 08:29:00;;;;;;;0.68;0.55;;;7.60;99.90;;;6.92;100.00;95610.47;4983521;28;20034;-42
2023/12/13 08:31:26;;;;;;;1.65;0.30;;;7.60;99.90;;;6.92;100.00;95610.47;4986611;28;20188;-40
2023/12/13 08:33:52;;;;;;;1.17;0.43;;;7.60;99.90;;;6.94;100.00;95616.47;4987269;28;20034;-39
2023/12/13 08:36:17;;;;;;;2.05;0.63;;;7.60;99.90;;;6.98;100.00;95617.16;4985979;28;20088;-37
2023/12/13 08:38:45;;;;;;;1.30;0.52;;;7.60;99.90;;;7.00;100.00;95610.94;4985066;28;20070;-37
2023/12/13 08:41:12;;;;;;;1.10;0.40;;;7.60;99.90;;;7.06;100.00;95617.63;4970233;28;20036;-37
2023/12/13 08:43:38;;;;;;;0.88;0.38;;;7.70;99.90;;;7.11;100.00;95612.16;4984028;28;20065;-38
2023/12/13 08:46:04;;;;;;;1.08;0.47;;;7.70;99.90;;;7.12;100.00;95608.59;4985030;28;21201;-39
2023/12/13 08:48:30;;;;;;;0.90;0.38;;;7.80;99.90;;;7.15;100.00;95600.56;4984611;28;20113;-39
2023/12/13 08:50:59;;;;;;;1.58;0.50;;;7.90;99.90;;;7.20;100.00;95603.81;4988562;28;20036;-38
2023/12/13 08:53:25;;;;;;;0.93;0.50;;;7.90;99.90;;;7.24;100.00;95614.03;4983348;28;20169;-38
2023/12/13 08:55:51;;;;;;;1.30;0.52;;;7.90;99.90;;;7.13;100.00;95589.31;4989610;28;20041;-38
2023/12/13 08:58:17;;;;;;;1.48;0.50;;;7.90;99.90;;;7.19;100.00;95600.31;4975993;28;20053;-39
2023/12/13 09:00:43;;;;;;;0.57;0.35;;;7.80;99.90;;;7.13;100.00;95586.72;4984771;28;20040;-39
2023/12/13 09:03:09;;;;;;;2.22;0.35;;;7.90;99.90;;;7.33;100.00;95599.59;4987841;28;20076;-39
2023/12/13 09:05:37;;;;;;;1.50;0.50;;;8.00;99.90;;;7.50;100.00;95595.22;4987270;28;20030;-39
2023/12/13 09:08:04;;;;;;;3.50;0.70;;;8.10;99.90;;;7.69;100.00;95609.06;4981837;28;20507;-39
2023/12/13 09:10:29;;;;;;;0.75;0.40;;;8.30;99.90;;;7.92;100.00;95602.56;4983262;28;20188;-38
2023/12/13 09:12:55;;;;;;;1.70;0.50;;;8.50;99.90;;;8.13;100.00;95600.53;4982253;28;20585;-40
2023/12/13 09:15:21;;;;;;;1.65;0.43;;;8.70;99.90;;;8.29;100.00;95603.13;4979862;28;20038;-38
2023/12/13 09:17:47;;;;;;;2.50;0.45;;;8.90;99.90;;;8.37;100.00;95602.69;4986501;28;20096;-39
2023/12/13 09:20:14;;;;;;;1.98;0.50;;;9.00;99.90;;;8.47;100.00;95610.91;4987486;28;20280;-38
2023/12/13 09:22:44;;;;;;;2.33;0.88;;;9.10;99.90;;;8.49;100.00;95609.03;4981184;28;20038;-38
2023/12/13 09:25:14;;;;;;;2.40;0.73;;;9.20;99.90;;;8.49;100.00;95602.03;4977698;28;20030;-39
2023/12/13 09:27:43;;;;;;;1.30;0.50;;;9.10;99.90;;;8.53;100.00;95605.34;4985567;28;20463;-37
2023/12/13 09:30:09;;;;;;;1.00;0.45;;;9.20;99.90;;;8.50;100.00;95602.88;4983184;28;20088;-38
2023/12/13 09:32:35;;;;;;;2.35;0.63;;;9.20;99.90;;;8.58;100.00;95619.06;4981952;28;20035;-40
2023/12/13 09:35:01;;;;;;;1.15;0.50;;;9.20;99.90;;;8.54;100.00;95600.00;4983272;28;20609;-38
2023/12/13 09:37:27;;;;;;;2.30;0.68;;;9.20;99.90;;;8.60;100.00;95610.13;4982441;28;20034;-38
2023/12/13 09:39:53;;;;;;;0.90;0.47;;;9.30;99.90;;;8.70;100.00;95617.47;4983711;28;20030;-39
2023/12/13 09:42:19;;;;;;;1.27;0.60;;;9.30;99.90;;;8.79;100.00;95628.31;4983041;28;20041;-39
2023/12/13 09:44:49;;;;;;;0.70;0.52;;;9.40;99.90;;;8.85;100.00;95621.84;4980577;28;20448;-39
2023/12/13 09:47:17;;;;;;;1.95;0.57;;;9.50;99.90;;;8.88;100.00;95619.06;4984236;28;20042;-39
2023/12/13 09:49:44;;;;;;;2.42;0.60;;;9.50;99.90;;;8.74;100.00;95621.63;4985297;28;20034;-38
2023/12/13 09:52:11;;;;;;;2.22;0.60;;;9.50;99.90;;;8.81;100.00;95638.75;4986725;28;20029;-41
2023/12/13 09:54:39;;;;;;;1.13;0.50;;;9.50;99.90;;;8.72;100.00;95642.75;4979206;28;20103;-43
2023/12/13 09:57:07;;;;;;;1.33;0.55;;;9.40;99.90;;;8.56;100.00;95640.16;4979803;28;20114;-40
2023/12/13 09:59:33;;;;;;;4.35;0.68;;;9.30;99.90;;;8.51;100.00;95650.06;4982710;28;20131;-40
2023/12/13 10:02:00;;;;;;;0.80;0.52;;;9.10;99.90;;;8.43;100.00;95647.03;4983226;28;20053;-40
2023/12/13 10:04:29;;;;;;;1.58;0.50;;;9.10;99.90;;;8.32;100.00;95647.59;4978658;28;20038;-39
2023/12/13 10:06:58;;;;;;;2.85;0.80;;;9.00;99.90;;;8.29;100.00;95652.16;4982271;28;20121;-40
2023/12/13 10:09:30;;;;;;;2.78;0.70;;;8.90;99.90;;;8.25;100.00;95648.03;4982476;28;20026;-40
2023/12/13 10:11:58;;;;;;;1.17;0.45;;;8.80;99.90;;;8.23;100.00;95645.47;4984420;28;20147;-39
2023/12/13 10:14:24;;;;;;;1.20;0.52;;;8.80;99.90;;;8.26;100.00;95639.22;4984596;28;20038;-38
2023/12/13 10:16:50;;;;;;;0.90;0.70;;;8.90;99.90;;;8.30;100.00;95635.50;4985424;28;20300;-39
2023/12/13 10:19:16;;;;;;;2.15;0.60;;;8.90;99.90;;;8.30;100.00;95619.72;4981029;28;20048;-39
2023/12/13 10:21:41;;;;;;;4.20;0.82;;;9.00;99.90;;;8.44;100.00;95640.84;4963361;28;20265;-40